Terminal Aerodrome Forecast
Issued by NWS Wilmington, OH

Home | Current Version | Previous Version | Text Only | Print | Product List | Glossary On
Versions: 1 2 3 4 5 6 7 8 9 10 11 12 13
000
FTUS41 KILN 292300
TAFDAY
TAF
KDAY 292340Z 3000/3024 15007KT P6SM SCT200
      TEMPO 3001/3002 20007KT 5SM -SHRA BKN040
     FM300200 17006KT P6SM SCT045 BKN200
     FM300400 17008KT P6SM SCT200
     FM301500 20010G16KT P6SM SCT045 BKN120
      TEMPO 3020/3022 -SHRA BKN040 OVC120
     FM302200 22011KT P6SM SCT040 OVC100=

USA.gov is the U.S. government's official web portal to all federal, state and local government web resources and services.